createdAt,value
2018-06-25T00:00:03.820Z,101913.68
2018-06-25T00:02:32.923Z,101912.92
2018-06-25T00:05:01.786Z,101914.80
2018-06-25T00:07:30.694Z,101922.92
2018-06-25T00:10:01.768Z,101921.87
2018-06-25T00:12:28.564Z,101924.15
2018-06-25T00:14:57.550Z,101935.59
2018-06-25T00:17:26.380Z,101934.51
2018-06-25T00:19:55.318Z,101944.04
2018-06-25T00:22:24.321Z,101939.80
2018-06-25T00:24:53.224Z,101931.73
2018-06-25T00:27:22.145Z,101921.19
2018-06-25T00:29:51.066Z,101924.64
2018-06-25T00:32:20.192Z,101913.34
2018-06-25T00:34:49.166Z,101921.73
2018-06-25T00:37:18.080Z,101922.56
2018-06-25T00:39:48.712Z,101919.47
2018-06-25T00:42:17.614Z,101922.56
2018-06-25T00:44:46.583Z,101922.20
2018-06-25T00:47:15.486Z,101926.91
2018-06-25T00:49:44.412Z,101927.99
2018-06-25T00:52:13.386Z,101935.84
2018-06-25T00:54:42.348Z,101924.32
2018-06-25T00:57:11.184Z,101921.59
2018-06-25T00:59:54.051Z,101915.26
2018-06-25T01:02:23.068Z,101926.66
2018-06-25T01:04:51.958Z,101919.20
2018-06-25T01:07:21.026Z,101918.84
2018-06-25T01:09:50.053Z,101922.44
2018-06-25T01:12:18.939Z,101919.77
2018-06-25T01:14:47.825Z,101924.45
2018-06-25T01:17:16.702Z,101922.44
2018-06-25T01:19:45.684Z,101923.48
2018-06-25T01:22:14.553Z,101923.80
2018-06-25T01:24:43.496Z,101913.88
2018-06-25T01:27:12.386Z,101918.34
2018-06-25T01:29:42.146Z,101918.09
2018-06-25T01:32:11.058Z,101916.73
2018-06-25T01:34:39.982Z,101915.28
2018-06-25T01:37:08.918Z,101918.48
2018-06-25T01:39:37.778Z,101911.79
2018-06-25T01:42:06.655Z,101909.27
2018-06-25T01:44:35.544Z,101906.03
2018-06-25T01:47:04.424Z,101907.31
2018-06-25T01:49:33.293Z,101909.14
2018-06-25T01:52:02.215Z,101908.81
2018-06-25T01:54:31.226Z,101912.88
2018-06-25T01:57:00.122Z,101907.49
2018-06-25T01:59:29.079Z,101910.98
2018-06-25T02:01:58.098Z,101905.30
2018-06-25T02:04:26.876Z,101902.30
2018-06-25T02:06:55.830Z,101901.66
2018-06-25T02:09:24.725Z,101904.17
2018-06-25T02:11:53.639Z,101909.28
2018-06-25T02:14:22.559Z,101911.66
2018-06-25T02:16:51.592Z,101913.20
2018-06-25T02:19:23.094Z,101913.75
2018-06-25T02:21:52.018Z,101915.47
2018-06-25T02:24:20.924Z,101907.05
2018-06-25T02:26:49.908Z,101906.30
2018-06-25T02:29:18.723Z,101910.03
2018-06-25T02:31:47.652Z,101918.45
2018-06-25T02:34:19.114Z,101914.78
2018-06-25T02:36:48.064Z,101919.89
2018-06-25T02:39:16.956Z,101916.95
2018-06-25T02:41:45.941Z,101919.32
2018-06-25T02:44:14.900Z,101918.61
2018-06-25T02:46:43.743Z,101915.84
2018-06-25T02:49:12.645Z,101924.69
2018-06-25T02:51:41.557Z,101930.44
2018-06-25T02:54:10.431Z,101931.98
2018-06-25T02:56:39.371Z,101927.05
2018-06-25T02:59:08.381Z,101928.23
2018-06-25T03:01:40.228Z,101922.19
2018-06-25T03:04:09.135Z,101915.72
2018-06-25T03:06:37.977Z,101919.67
2018-06-25T03:09:08.679Z,101918.37
2018-06-25T03:11:37.486Z,101922.98
2018-06-25T03:14:06.519Z,101919.53
2018-06-25T03:16:35.608Z,101916.97
2018-06-25T03:19:04.730Z,101912.37
2018-06-25T03:21:33.654Z,101919.40
2018-06-25T03:24:05.719Z,101918.81
2018-06-25T03:26:34.792Z,101916.08
2018-06-25T03:29:03.635Z,101925.80
2018-06-25T03:31:32.573Z,101921.98
2018-06-25T03:34:01.494Z,101923.12
2018-06-25T03:36:30.428Z,101922.39
2018-06-25T03:38:59.306Z,101931.09
2018-06-25T03:41:28.199Z,101932.09
2018-06-25T03:43:57.053Z,101933.25
2018-06-25T03:46:25.978Z,101933.75
2018-06-25T03:48:55.012Z,101929.29
2018-06-25T03:51:23.958Z,101930.16
2018-06-25T03:53:52.948Z,101936.45
2018-06-25T03:56:21.886Z,101942.00
2018-06-25T03:58:50.740Z,101937.46
2018-06-25T04:01:19.694Z,101943.29
2018-06-25T04:03:48.603Z,101944.77
2018-06-25T04:06:17.461Z,101948.91
2018-06-25T04:08:46.374Z,101945.23
2018-06-25T04:11:15.294Z,101952.22
2018-06-25T04:13:44.156Z,101946.02
2018-06-25T04:16:13.079Z,101954.09
2018-06-25T04:18:41.994Z,101953.44
2018-06-25T04:21:11.065Z,101962.29
2018-06-25T04:23:40.123Z,101960.20
2018-06-25T04:26:09.006Z,101961.64
2018-06-25T04:28:37.910Z,101969.13
2018-06-25T04:31:06.794Z,101960.20
2018-06-25T04:33:35.715Z,101962.29
2018-06-25T04:36:04.662Z,101967.25
2018-06-25T04:38:35.934Z,101969.20
2018-06-25T04:41:04.809Z,101977.80
2018-06-25T04:43:33.743Z,101983.28
2018-06-25T04:46:02.589Z,101985.87
2018-06-25T04:48:31.364Z,101996.95
2018-06-25T04:51:00.198Z,101996.34
2018-06-25T04:53:29.069Z,102000.23
2018-06-25T04:55:57.943Z,101995.41
2018-06-25T04:58:26.820Z,101991.45
2018-06-25T05:00:55.707Z,101998.87
2018-06-25T05:03:24.577Z,101994.41
2018-06-25T05:05:53.523Z,101993.80
2018-06-25T05:08:24.919Z,101995.66
2018-06-25T05:10:53.788Z,101993.86
2018-06-25T05:13:22.659Z,101999.73
2018-06-25T05:15:51.549Z,101998.82
2018-06-25T05:18:20.454Z,101998.17
2018-06-25T05:20:49.347Z,102004.48
2018-06-25T05:23:18.321Z,101999.46
2018-06-25T05:25:47.488Z,102011.02
2018-06-25T05:28:16.371Z,102015.33
2018-06-25T05:30:45.294Z,102007.94
2018-06-25T05:33:14.202Z,102012.90
2018-06-25T05:35:43.071Z,102012.37
2018-06-25T05:38:11.983Z,102009.33
2018-06-25T05:40:41.001Z,102017.55
2018-06-25T05:43:09.785Z,102013.95
2018-06-25T05:45:38.664Z,102016.77
2018-06-25T05:48:13.555Z,102012.66
2018-06-25T05:50:42.468Z,102011.00
2018-06-25T05:53:11.366Z,102015.41
2018-06-25T05:55:40.228Z,102016.98
2018-06-25T05:58:09.149Z,102022.84
2018-06-25T06:00:38.053Z,102020.37
2018-06-25T06:03:07.001Z,102020.02
2018-06-25T06:05:35.908Z,102023.77
2018-06-25T06:08:04.805Z,102019.15
2018-06-25T06:10:33.795Z,102029.25
2018-06-25T06:13:02.696Z,102036.25
2018-06-25T06:15:31.575Z,102040.15
2018-06-25T06:18:00.476Z,102038.27
2018-06-25T06:20:29.368Z,102033.50
2018-06-25T06:22:58.250Z,102038.03
2018-06-25T06:25:27.175Z,102039.06
2018-06-25T06:27:56.136Z,102043.38
2018-06-25T06:30:25.043Z,102039.36
2018-06-25T06:32:57.042Z,102042.63
2018-06-25T06:35:25.899Z,102042.56
2018-06-25T06:37:54.770Z,102042.89
2018-06-25T06:40:23.635Z,102038.27
2018-06-25T06:42:52.504Z,102038.98
2018-06-25T06:45:21.446Z,102041.95
2018-06-25T06:47:50.219Z,102047.99
2018-06-25T06:50:19.137Z,102041.45
2018-06-25T06:52:48.019Z,102043.23
2018-06-25T06:55:17.035Z,102048.78
2018-06-25T06:57:45.910Z,102050.55
2018-06-25T07:00:14.809Z,102051.94
2018-06-25T07:02:43.676Z,102050.81
2018-06-25T07:05:12.553Z,102056.31
2018-06-25T07:07:41.454Z,102057.06
2018-06-25T07:10:10.405Z,102061.86
2018-06-25T07:12:39.230Z,102066.84
2018-06-25T07:15:08.108Z,102058.66
2018-06-25T07:17:36.994Z,102058.75
2018-06-25T07:20:06.002Z,102057.06
2018-06-25T07:22:34.845Z,102057.94
2018-06-25T07:25:03.782Z,102060.22
2018-06-25T07:27:32.855Z,102060.42
2018-06-25T07:30:01.940Z,102056.39
2018-06-25T07:32:30.898Z,102060.31
2018-06-25T07:34:59.673Z,102059.44
2018-06-25T07:37:30.366Z,102067.67
2018-06-25T07:39:59.631Z,102062.04
2018-06-25T07:42:28.578Z,102065.14
2018-06-25T07:44:57.745Z,102064.41
2018-06-25T07:47:26.807Z,102062.52
2018-06-25T07:49:55.739Z,102063.55
2018-06-25T07:52:24.560Z,102059.27
2018-06-25T07:54:53.706Z,102065.46
2018-06-25T07:57:22.488Z,102058.79
2018-06-25T07:59:54.304Z,102062.91
2018-06-25T08:02:23.210Z,102065.70
2018-06-25T08:04:52.105Z,102060.27
2018-06-25T08:07:21.032Z,102056.53
2018-06-25T08:09:49.884Z,102061.00
2018-06-25T08:12:18.703Z,102056.39
2018-06-25T08:14:47.554Z,102056.77
2018-06-25T08:17:16.466Z,102061.83
2018-06-25T08:19:45.700Z,102065.16
2018-06-25T08:22:14.536Z,102065.55
2018-06-25T08:24:51.179Z,102068.13
2018-06-25T08:27:20.098Z,102063.49
2018-06-25T08:29:49.185Z,102065.92
2018-06-25T08:32:18.169Z,102069.34
2018-06-25T08:34:47.155Z,102069.88
2018-06-25T08:37:16.140Z,102073.44
2018-06-25T08:39:45.862Z,102077.27
2018-06-25T08:42:14.777Z,102080.89
2018-06-25T08:44:45.221Z,102090.14
2018-06-25T08:47:12.699Z,102081.02
2018-06-25T08:49:41.615Z,102080.00
2018-06-25T08:52:12.659Z,102077.41
2018-06-25T08:54:41.986Z,102079.67
2018-06-25T08:57:11.152Z,102075.38
2018-06-25T08:59:40.020Z,102079.31
2018-06-25T09:02:08.941Z,102086.75
2018-06-25T09:04:37.810Z,102087.05
2018-06-25T09:07:06.837Z,102089.83
2018-06-25T09:09:40.750Z,102082.55
2018-06-25T09:12:09.649Z,102088.91
2018-06-25T09:14:38.549Z,102087.37
2018-06-25T09:17:07.420Z,102088.41
2018-06-25T09:19:36.317Z,102092.53
2018-06-25T09:22:05.180Z,102094.60
2018-06-25T09:24:34.063Z,102092.03
2018-06-25T09:27:02.973Z,102092.55
2018-06-25T09:29:31.876Z,102094.43
2018-06-25T09:32:00.961Z,102094.78
2018-06-25T09:34:49.075Z,102092.55
2018-06-25T09:37:18.909Z,102088.97
2018-06-25T09:39:49.245Z,102087.25
2018-06-25T09:42:18.224Z,102097.22
2018-06-25T09:44:47.145Z,102092.56
2018-06-25T09:47:16.071Z,102093.78
2018-06-25T09:49:44.897Z,102095.31
2018-06-25T09:52:13.799Z,102102.16
2018-06-25T09:54:42.773Z,102109.19
2018-06-25T09:57:11.617Z,102114.67
2018-06-25T09:59:40.574Z,102117.77
2018-06-25T10:02:09.455Z,102118.14
2018-06-25T10:04:38.377Z,102113.16
2018-06-25T10:07:07.410Z,102115.60
2018-06-25T10:09:36.193Z,102112.97
2018-06-25T10:12:05.137Z,102111.33
2018-06-25T10:14:33.935Z,102111.91
2018-06-25T10:17:03.042Z,102112.42
2018-06-25T10:19:31.983Z,102110.16
2018-06-25T10:22:03.968Z,102105.98
2018-06-25T10:24:32.851Z,102109.33
2018-06-25T10:27:01.702Z,102103.48
2018-06-25T10:29:30.613Z,102108.86
2018-06-25T10:31:59.516Z,102102.66
2018-06-25T10:34:28.470Z,102099.80
2018-06-25T10:36:57.375Z,102104.11
2018-06-25T10:39:28.244Z,102105.34
2018-06-25T10:41:57.196Z,102092.28
2018-06-25T10:44:26.025Z,102087.34
2018-06-25T10:46:54.883Z,102094.86
2018-06-25T10:49:23.736Z,102100.23
2018-06-25T10:51:52.605Z,102095.09
2018-06-25T10:54:21.467Z,102097.79
2018-06-25T10:56:50.326Z,102093.26
2018-06-25T10:59:19.283Z,102089.86
2018-06-25T11:01:48.056Z,102084.69
2018-06-25T11:04:16.905Z,102088.80
2018-06-25T11:06:45.724Z,102079.59
2018-06-25T11:09:14.559Z,102077.06
2018-06-25T11:11:43.430Z,102079.41
2018-06-25T11:14:12.287Z,102077.47
2018-06-25T11:16:41.128Z,102074.37
2018-06-25T11:19:11.145Z,102066.48
2018-06-25T11:21:39.869Z,102059.56
2018-06-25T11:24:08.690Z,102060.32
2018-06-25T11:27:32.443Z,102054.56
2018-06-25T11:30:01.147Z,102064.09
2018-06-25T11:32:30.000Z,102068.42
2018-06-25T11:34:58.831Z,102064.83
2018-06-25T11:37:27.653Z,102069.70
2018-06-25T11:40:45.439Z,102061.33
2018-06-25T11:43:14.298Z,102066.20
2018-06-25T11:45:43.120Z,102058.52
2018-06-25T11:48:12.164Z,102053.86
2018-06-25T11:50:43.133Z,102062.22
2018-06-25T11:53:12.164Z,102056.27
2018-06-25T11:55:41.054Z,102052.13
2018-06-25T11:58:09.884Z,102060.59
2018-06-25T12:00:38.758Z,102053.70
2018-06-25T12:03:08.011Z,102061.85
2018-06-25T12:05:36.747Z,102070.58
2018-06-25T12:08:05.571Z,102059.06
2018-06-25T12:10:34.486Z,102057.68
2018-06-25T12:13:03.312Z,102065.66
2018-06-25T12:15:32.150Z,102060.74
2018-06-25T12:18:01.013Z,102059.88
2018-06-25T12:20:29.854Z,102058.06
2018-06-25T12:22:58.685Z,102060.60
2018-06-25T12:25:27.488Z,102060.09
2018-06-25T12:27:56.390Z,102061.11
2018-06-25T12:30:25.254Z,102066.47
2018-06-25T12:32:54.095Z,102058.23
2018-06-25T12:35:22.969Z,102050.16
2018-06-25T12:37:51.827Z,102050.17
2018-06-25T12:40:20.625Z,102059.23
2018-06-25T12:42:49.453Z,102047.92
2018-06-25T12:45:18.302Z,102052.47
2018-06-25T12:47:47.110Z,102053.86
2018-06-25T12:50:15.950Z,102052.33
2018-06-25T12:52:44.978Z,102055.22
2018-06-25T12:55:13.863Z,102058.02
2018-06-25T12:57:42.666Z,102048.41
2018-06-25T13:00:11.568Z,102057.16
2018-06-25T13:02:40.388Z,102043.37
2018-06-25T13:05:09.235Z,102048.58
2018-06-25T13:07:38.100Z,102047.20
2018-06-25T13:10:07.236Z,102046.16
2018-06-25T13:12:36.084Z,102054.52
2018-06-25T13:15:08.964Z,102050.56
2018-06-25T13:17:37.796Z,102053.72
2018-06-25T13:20:06.712Z,102055.94
2018-06-25T13:22:35.529Z,102055.80
2018-06-25T13:25:04.471Z,102051.45
2018-06-25T13:27:33.314Z,102061.22
2018-06-25T13:30:02.660Z,102048.88
2018-06-25T13:32:31.497Z,102056.33
2018-06-25T13:35:00.346Z,102056.95
2018-06-25T13:37:29.228Z,102056.13
2018-06-25T13:39:58.075Z,102053.90
2018-06-25T13:42:26.903Z,102061.19
2018-06-25T13:44:55.762Z,102047.53
2018-06-25T13:47:24.614Z,102055.11
2018-06-25T13:49:53.468Z,102052.45
2018-06-25T13:52:22.699Z,102049.45
2018-06-25T13:54:51.621Z,102044.73
2018-06-25T13:57:20.607Z,102045.53
2018-06-25T13:59:49.464Z,102051.18
2018-06-25T14:02:18.352Z,102047.78
2018-06-25T14:04:47.208Z,102041.67
2018-06-25T14:07:16.062Z,102039.56
2018-06-25T14:09:44.910Z,102050.11
2018-06-25T14:12:13.842Z,102038.89
2018-06-25T14:14:42.809Z,102045.25
2018-06-25T14:17:11.693Z,102049.12
2018-06-25T14:19:47.922Z,102050.23
2018-06-25T14:22:16.829Z,102051.58
2018-06-25T14:25:01.739Z,102053.63
2018-06-25T14:27:48.471Z,102052.77
2018-06-25T14:30:35.304Z,102045.57
2018-06-25T14:33:04.766Z,102046.63
2018-06-25T14:35:33.630Z,102044.34
2018-06-25T14:38:02.570Z,102031.64
2018-06-25T14:40:31.673Z,102040.48
2018-06-25T14:43:00.449Z,102043.98
2018-06-25T14:45:29.298Z,102041.20
2018-06-25T14:47:58.207Z,102032.03
2018-06-25T14:50:27.019Z,102034.78
2018-06-25T14:52:55.894Z,102039.20
2018-06-25T14:55:24.807Z,102041.08
2018-06-25T14:57:53.644Z,102039.13
2018-06-25T15:00:22.499Z,102042.44
2018-06-25T15:02:57.225Z,102046.13
2018-06-25T15:05:26.069Z,102046.09
2018-06-25T15:07:54.900Z,102039.78
2018-06-25T15:10:23.771Z,102041.61
2018-06-25T15:12:52.602Z,102044.00
2018-06-25T15:15:21.455Z,102044.34
2018-06-25T15:17:50.354Z,102036.28
2018-06-25T15:20:19.182Z,102034.05
2018-06-25T15:22:48.039Z,102029.45
2018-06-25T15:25:34.747Z,102031.08
2018-06-25T15:28:03.632Z,102026.06
2018-06-25T15:30:32.532Z,102029.58
2018-06-25T15:33:01.378Z,102009.59
2018-06-25T15:35:30.217Z,102018.06
2018-06-25T15:37:59.117Z,102011.47
2018-06-25T15:40:27.886Z,102012.00
2018-06-25T15:42:56.756Z,102005.42
2018-06-25T15:45:25.621Z,102008.80
2018-06-25T15:48:00.829Z,102005.17
2018-06-25T15:50:29.648Z,102014.59
2018-06-25T15:52:58.568Z,102014.59
2018-06-25T15:55:27.453Z,102017.56
2018-06-25T15:57:56.312Z,102015.41
2018-06-25T16:00:25.158Z,102019.48
2018-06-25T16:02:54.007Z,102020.27
2018-06-25T16:05:22.848Z,102019.77
2018-06-25T16:07:51.813Z,102026.80
2018-06-25T16:10:20.737Z,102026.66
2018-06-25T16:12:49.612Z,102026.38
2018-06-25T16:15:18.454Z,102019.73
2018-06-25T16:17:47.389Z,102010.86
2018-06-25T16:20:16.223Z,102016.25
2018-06-25T16:22:45.089Z,102011.77
2018-06-25T16:25:13.962Z,102013.28
2018-06-25T16:27:42.854Z,102005.31
2018-06-25T16:30:11.673Z,102016.39
2018-06-25T16:32:46.453Z,102009.27
2018-06-25T16:35:15.649Z,102010.11
2018-06-25T16:37:44.811Z,102011.40
2018-06-25T16:40:13.671Z,102010.81
2018-06-25T16:42:42.548Z,102009.76
2018-06-25T16:45:11.432Z,102010.63
2018-06-25T16:47:40.274Z,102013.24
2018-06-25T16:50:09.138Z,102016.95
2018-06-25T16:52:37.999Z,102011.23
2018-06-25T16:55:06.904Z,102010.41
2018-06-25T16:57:37.576Z,102010.27
2018-06-25T17:00:06.762Z,102013.67
2018-06-25T17:02:35.624Z,102017.26
2018-06-25T17:05:04.495Z,102020.81
2018-06-25T17:07:33.353Z,102020.92
2018-06-25T17:10:02.195Z,102015.77
2018-06-25T17:12:31.077Z,102019.51
2018-06-25T17:14:59.928Z,102023.72
2018-06-25T17:17:28.755Z,102023.16
2018-06-25T17:19:57.628Z,102014.64
2018-06-25T17:22:26.471Z,102021.55
2018-06-25T17:24:55.381Z,102021.53
2018-06-25T17:27:24.219Z,102020.14
2018-06-25T17:29:53.084Z,102026.16
2018-06-25T17:32:21.937Z,102020.48
2018-06-25T17:34:50.789Z,102026.37
2018-06-25T17:37:23.039Z,102029.20
2018-06-25T17:39:51.935Z,102024.38
2018-06-25T17:42:20.810Z,102016.52
2018-06-25T17:44:49.659Z,102028.00
2018-06-25T17:47:18.515Z,102020.23
2018-06-25T17:49:47.377Z,102023.39
2018-06-25T17:52:16.195Z,102023.27
2018-06-25T17:54:45.115Z,102025.69
2018-06-25T17:57:13.872Z,102038.14
2018-06-25T17:59:42.729Z,102035.62
2018-06-25T18:02:11.552Z,102035.88
2018-06-25T18:04:58.569Z,102044.02
2018-06-25T18:07:27.396Z,102049.16
2018-06-25T18:09:56.234Z,102048.33
2018-06-25T18:12:25.069Z,102044.03
2018-06-25T18:14:53.917Z,102047.55
2018-06-25T18:17:22.773Z,102049.00
2018-06-25T18:19:51.600Z,102047.50
2018-06-25T18:22:20.440Z,102046.29
2018-06-25T18:24:49.296Z,102047.55
2018-06-25T18:27:18.150Z,102050.19
2018-06-25T18:29:46.989Z,102055.36
2018-06-25T18:32:15.823Z,102051.09
2018-06-25T18:34:44.666Z,102049.72
2018-06-25T18:37:13.545Z,102056.66
2018-06-25T18:39:42.378Z,102057.86
2018-06-25T18:42:11.236Z,102050.17
2018-06-25T18:44:40.132Z,102056.20
2018-06-25T18:47:08.951Z,102049.88
2018-06-25T18:49:44.173Z,102051.97
2018-06-25T18:52:13.039Z,102056.61
2018-06-25T18:54:41.855Z,102053.33
2018-06-25T18:57:10.760Z,102071.41
2018-06-25T18:59:39.602Z,102067.30
2018-06-25T19:02:08.462Z,102071.41
2018-06-25T19:04:37.318Z,102069.69
2018-06-25T19:07:06.197Z,102068.13
2018-06-25T19:09:35.083Z,102068.28
2018-06-25T19:12:07.078Z,102067.59
2018-06-25T19:14:35.918Z,102069.63
2018-06-25T19:17:04.837Z,102075.29
2018-06-25T19:19:33.720Z,102071.34
2018-06-25T19:22:02.562Z,102077.02
2018-06-25T19:24:31.413Z,102078.19
2018-06-25T19:27:00.260Z,102072.66
2018-06-25T19:29:29.108Z,102080.38
2018-06-25T19:31:57.937Z,102081.67
2018-06-25T19:34:28.191Z,102083.88
2018-06-25T19:36:57.027Z,102081.64
2018-06-25T19:39:25.871Z,102085.73
2018-06-25T19:41:54.751Z,102093.91
2018-06-25T19:44:23.618Z,102091.23
2018-06-25T19:46:52.562Z,102091.75
2018-06-25T19:49:21.338Z,102102.28
2018-06-25T19:51:51.163Z,102099.14
2018-06-25T19:54:20.051Z,102104.42
2018-06-25T19:56:49.020Z,102109.72
2018-06-25T19:59:17.894Z,102112.88
2018-06-25T20:01:46.814Z,102109.22
2018-06-25T20:04:15.739Z,102118.52
2018-06-25T20:06:44.588Z,102118.72
2018-06-25T20:09:13.732Z,102126.27
2018-06-25T20:11:42.672Z,102125.86
2018-06-25T20:14:11.559Z,102122.55
2018-06-25T20:16:40.496Z,102123.55
2018-06-25T20:19:09.439Z,102132.02
2018-06-25T20:21:38.234Z,102123.20
2018-06-25T20:24:07.066Z,102128.75
2018-06-25T20:26:35.942Z,102122.94
2018-06-25T20:29:05.139Z,102136.84
2018-06-25T20:31:33.995Z,102131.86
2018-06-25T20:34:03.019Z,102135.77
2018-06-25T20:36:32.716Z,102130.76
2018-06-25T20:39:01.613Z,102137.19
2018-06-25T20:41:30.495Z,102135.34
2018-06-25T20:43:59.501Z,102130.81
2018-06-25T20:46:28.460Z,102131.08
2018-06-25T20:48:57.327Z,102133.70
2018-06-25T20:51:26.215Z,102139.47
2018-06-25T20:53:55.056Z,102138.97
2018-06-25T20:56:23.922Z,102135.91
2018-06-25T20:58:52.899Z,102139.19
2018-06-25T21:01:21.843Z,102142.90
2018-06-25T21:03:50.711Z,102142.87
2018-06-25T21:06:19.649Z,102143.98
2018-06-25T21:08:48.420Z,102143.34
2018-06-25T21:11:17.266Z,102145.67
2018-06-25T21:13:46.101Z,102142.17
2018-06-25T21:16:14.960Z,102150.73
2018-06-25T21:18:44.057Z,102156.03
2018-06-25T21:21:12.947Z,102152.31
2018-06-25T21:24:17.781Z,102153.23
2018-06-25T21:26:46.587Z,102144.41
2018-06-25T21:29:15.461Z,102145.73
2018-06-25T21:31:44.350Z,102145.59
2018-06-25T21:34:13.241Z,102144.22
2018-06-25T21:36:42.110Z,102146.38
2018-06-25T21:39:11.035Z,102147.75
2018-06-25T21:41:39.907Z,102149.34
2018-06-25T21:44:08.756Z,102155.22
2018-06-25T21:46:39.147Z,102158.17
2018-06-25T21:49:08.012Z,102157.58
2018-06-25T21:51:36.901Z,102159.80
2018-06-25T21:54:05.794Z,102158.67
2018-06-25T21:56:34.664Z,102160.57
2018-06-25T21:59:03.527Z,102154.94
2018-06-25T22:01:32.365Z,102145.62
2018-06-25T22:04:01.261Z,102146.39
2018-06-25T22:06:30.122Z,102147.06
2018-06-25T22:09:08.149Z,102152.10
2018-06-25T22:11:37.001Z,102150.10
2018-06-25T22:14:05.937Z,102143.21
2018-06-25T22:16:34.874Z,102150.02
2018-06-25T22:19:03.735Z,102147.92
2018-06-25T22:21:32.610Z,102144.95
2018-06-25T22:24:01.538Z,102146.45
2018-06-25T22:26:30.392Z,102143.52
2018-06-25T22:28:59.251Z,102150.98
2018-06-25T22:31:28.122Z,102155.52
2018-06-25T22:33:56.948Z,102159.64
2018-06-25T22:36:25.798Z,102158.57
2018-06-25T22:38:54.635Z,102156.43
2018-06-25T22:41:23.676Z,102164.20
2018-06-25T22:43:52.520Z,102154.23
2018-06-25T22:46:21.388Z,102161.47
2018-06-25T22:48:50.209Z,102164.92
2018-06-25T22:51:20.634Z,102163.70
2018-06-25T22:53:49.509Z,102167.92
2018-06-25T22:56:18.388Z,102165.63
2018-06-25T22:58:47.235Z,102167.01
2018-06-25T23:01:16.092Z,102170.30
2018-06-25T23:03:45.042Z,102166.63
2018-06-25T23:06:13.864Z,102170.37
2018-06-25T23:08:42.724Z,102162.48
2018-06-25T23:11:11.915Z,102158.77
2018-06-25T23:13:40.969Z,102153.56
2018-06-25T23:16:09.841Z,102155.10
2018-06-25T23:18:38.721Z,102151.55
2018-06-25T23:21:07.883Z,102148.63
2018-06-25T23:23:36.735Z,102155.33
2018-06-25T23:26:05.619Z,102159.05
2018-06-25T23:28:34.499Z,102153.36
2018-06-25T23:31:03.342Z,102164.14
2018-06-25T23:33:32.205Z,102156.24
2018-06-25T23:36:01.182Z,102157.86
2018-06-25T23:38:30.069Z,102154.92
2018-06-25T23:40:58.936Z,102151.08
2018-06-25T23:43:27.775Z,102150.20
2018-06-25T23:45:56.604Z,102143.27
2018-06-25T23:48:25.454Z,102151.36
2018-06-25T23:50:54.313Z,102154.85
2018-06-25T23:53:23.150Z,102149.31
2018-06-25T23:55:51.989Z,102151.16
2018-06-25T23:58:20.917Z,102152.42
